sensor_id;sensor_type;location;lat;lon;timestamp;P1;durP1;ratioP1;P2;durP2;ratioP2
9174;SDS011;54374;50.196;8.050;2022-07-05T00:01:18;1.75;;;1.50;;
9174;SDS011;54374;50.196;8.050;2022-07-05T00:03:45;1.45;;;1.33;;
9174;SDS011;54374;50.196;8.050;2022-07-05T00:06:12;1.90;;;1.60;;
9174;SDS011;54374;50.196;8.050;2022-07-05T00:08:39;2.55;;;1.95;;
9174;SDS011;54374;50.196;8.050;2022-07-05T00:11:07;1.70;;;1.52;;
9174;SDS011;54374;50.196;8.050;2022-07-05T00:13:34;1.60;;;1.50;;
9174;SDS011;54374;50.196;8.050;2022-07-05T00:16:01;2.85;;;1.20;;
9174;SDS011;54374;50.196;8.050;2022-07-05T00:18:29;2.97;;;1.38;;
9174;SDS011;54374;50.196;8.050;2022-07-05T00:20:56;2.80;;;1.70;;
9174;SDS011;54374;50.196;8.050;2022-07-05T00:23:23;2.05;;;1.52;;
9174;SDS011;54374;50.196;8.050;2022-07-05T00:25:50;3.35;;;1.80;;
9174;SDS011;54374;50.196;8.050;2022-07-05T00:28:19;1.55;;;1.23;;
9174;SDS011;54374;50.196;8.050;2022-07-05T00:30:46;2.03;;;1.48;;
9174;SDS011;54374;50.196;8.050;2022-07-05T00:33:13;1.90;;;1.50;;
9174;SDS011;54374;50.196;8.050;2022-07-05T00:35:40;4.30;;;1.27;;
9174;SDS011;54374;50.196;8.050;2022-07-05T00:38:07;2.00;;;1.70;;
9174;SDS011;54374;50.196;8.050;2022-07-05T00:40:35;1.80;;;1.55;;
9174;SDS011;54374;50.196;8.050;2022-07-05T00:43:03;1.60;;;1.50;;
9174;SDS011;54374;50.196;8.050;2022-07-05T00:45:31;2.47;;;1.80;;
9174;SDS011;54374;50.196;8.050;2022-07-05T00:47:58;3.83;;;1.77;;
9174;SDS011;54374;50.196;8.050;2022-07-05T00:50:26;3.10;;;1.95;;
9174;SDS011;54374;50.196;8.050;2022-07-05T00:52:54;1.95;;;1.60;;
9174;SDS011;54374;50.196;8.050;2022-07-05T00:55:22;3.90;;;2.33;;
9174;SDS011;54374;50.196;8.050;2022-07-05T00:57:50;1.63;;;1.52;;
9174;SDS011;54374;50.196;8.050;2022-07-05T01:00:17;1.85;;;1.75;;
9174;SDS011;54374;50.196;8.050;2022-07-05T01:02:46;2.25;;;1.50;;
9174;SDS011;54374;50.196;8.050;2022-07-05T01:05:13;1.70;;;1.60;;
9174;SDS011;54374;50.196;8.050;2022-07-05T01:07:41;1.77;;;1.58;;
9174;SDS011;54374;50.196;8.050;2022-07-05T01:10:08;2.83;;;1.60;;
9174;SDS011;54374;50.196;8.050;2022-07-05T01:12:39;2.17;;;1.63;;
9174;SDS011;54374;50.196;8.050;2022-07-05T01:15:07;3.17;;;2.05;;
9174;SDS011;54374;50.196;8.050;2022-07-05T01:17:35;5.75;;;2.05;;
9174;SDS011;54374;50.196;8.050;2022-07-05T01:20:05;1.50;;;1.40;;
9174;SDS011;54374;50.196;8.050;2022-07-05T01:22:51;2.45;;;2.08;;
9174;SDS011;54374;50.196;8.050;2022-07-05T01:25:20;2.63;;;2.00;;
9174;SDS011;54374;50.196;8.050;2022-07-05T01:27:48;3.60;;;1.90;;
9174;SDS011;54374;50.196;8.050;2022-07-05T01:30:16;4.13;;;1.75;;
9174;SDS011;54374;50.196;8.050;2022-07-05T01:32:44;1.70;;;1.60;;
9174;SDS011;54374;50.196;8.050;2022-07-05T01:35:12;2.38;;;2.17;;
9174;SDS011;54374;50.196;8.050;2022-07-05T01:37:45;4.95;;;1.40;;
9174;SDS011;54374;50.196;8.050;2022-07-05T01:40:14;2.95;;;1.63;;
9174;SDS011;54374;50.196;8.050;2022-07-05T01:42:43;3.35;;;1.80;;
9174;SDS011;54374;50.196;8.050;2022-07-05T01:45:10;1.90;;;1.70;;
9174;SDS011;54374;50.196;8.050;2022-07-05T01:47:38;3.08;;;1.75;;
9174;SDS011;54374;50.196;8.050;2022-07-05T01:50:10;1.75;;;1.65;;
9174;SDS011;54374;50.196;8.050;2022-07-05T01:52:41;2.17;;;1.80;;
9174;SDS011;54374;50.196;8.050;2022-07-05T01:55:10;2.75;;;1.67;;
9174;SDS011;54374;50.196;8.050;2022-07-05T01:57:38;5.05;;;1.92;;
9174;SDS011;54374;50.196;8.050;2022-07-05T02:00:06;1.70;;;1.60;;
9174;SDS011;54374;50.196;8.050;2022-07-05T02:03:01;3.30;;;1.75;;
9174;SDS011;54374;50.196;8.050;2022-07-05T02:05:30;2.47;;;1.90;;
9174;SDS011;54374;50.196;8.050;2022-07-05T02:07:58;1.75;;;1.65;;
9174;SDS011;54374;50.196;8.050;2022-07-05T02:10:25;3.28;;;1.73;;
9174;SDS011;54374;50.196;8.050;2022-07-05T02:12:53;1.90;;;1.80;;
9174;SDS011;54374;50.196;8.050;2022-07-05T02:15:21;3.45;;;2.60;;
9174;SDS011;54374;50.196;8.050;2022-07-05T02:17:50;2.60;;;1.90;;
9174;SDS011;54374;50.196;8.050;2022-07-05T02:20:17;1.88;;;1.75;;
9174;SDS011;54374;50.196;8.050;2022-07-05T02:22:45;1.60;;;1.50;;
9174;SDS011;54374;50.196;8.050;2022-07-05T02:25:12;1.73;;;1.63;;
9174;SDS011;54374;50.196;8.050;2022-07-05T02:27:39;1.80;;;1.70;;
9174;SDS011;54374;50.196;8.050;2022-07-05T02:30:08;4.80;;;1.50;;
9174;SDS011;54374;50.196;8.050;2022-07-05T02:32:39;2.75;;;1.77;;
9174;SDS011;54374;50.196;8.050;2022-07-05T02:35:07;3.95;;;1.80;;
9174;SDS011;54374;50.196;8.050;2022-07-05T02:37:35;3.17;;;2.13;;
9174;SDS011;54374;50.196;8.050;2022-07-05T02:40:06;4.60;;;2.00;;
9174;SDS011;54374;50.196;8.050;2022-07-05T02:42:40;2.30;;;2.08;;
9174;SDS011;54374;50.196;8.050;2022-07-05T02:45:14;3.05;;;2.10;;
9174;SDS011;54374;50.196;8.050;2022-07-05T02:47:44;4.95;;;2.05;;
9174;SDS011;54374;50.196;8.050;2022-07-05T02:50:12;1.75;;;1.65;;
9174;SDS011;54374;50.196;8.050;2022-07-05T02:52:44;3.35;;;2.22;;
9174;SDS011;54374;50.196;8.050;2022-07-05T02:55:12;3.83;;;1.77;;
9174;SDS011;54374;50.196;8.050;2022-07-05T02:57:40;2.05;;;1.85;;
9174;SDS011;54374;50.196;8.050;2022-07-05T03:00:10;4.55;;;2.00;;
9174;SDS011;54374;50.196;8.050;2022-07-05T03:02:43;2.20;;;1.98;;
9174;SDS011;54374;50.196;8.050;2022-07-05T03:05:11;2.08;;;1.80;;
9174;SDS011;54374;50.196;8.050;2022-07-05T03:07:43;2.00;;;1.90;;
9174;SDS011;54374;50.196;8.050;2022-07-05T03:10:10;2.08;;;1.70;;
9174;SDS011;54374;50.196;8.050;2022-07-05T03:12:37;3.47;;;1.90;;
9174;SDS011;54374;50.196;8.050;2022-07-05T03:15:09;2.65;;;1.63;;
9174;SDS011;54374;50.196;8.050;2022-07-05T03:17:36;2.55;;;2.15;;
9174;SDS011;54374;50.196;8.050;2022-07-05T03:20:05;3.28;;;2.08;;
9174;SDS011;54374;50.196;8.050;2022-07-05T03:22:33;2.15;;;1.90;;
9174;SDS011;54374;50.196;8.050;2022-07-05T03:25:00;2.17;;;1.63;;
9174;SDS011;54374;50.196;8.050;2022-07-05T03:27:30;3.80;;;2.35;;
9174;SDS011;54374;50.196;8.050;2022-07-05T03:29:58;2.35;;;2.10;;
9174;SDS011;54374;50.196;8.050;2022-07-05T03:32:29;3.72;;;2.10;;
9174;SDS011;54374;50.196;8.050;2022-07-05T03:34:59;1.95;;;1.75;;
9174;SDS011;54374;50.196;8.050;2022-07-05T03:37:28;2.45;;;1.75;;
9174;SDS011;54374;50.196;8.050;2022-07-05T03:39:56;1.85;;;1.60;;
9174;SDS011;54374;50.196;8.050;2022-07-05T03:42:23;2.05;;;1.85;;
9174;SDS011;54374;50.196;8.050;2022-07-05T03:44:50;2.65;;;1.85;;
9174;SDS011;54374;50.196;8.050;2022-07-05T03:47:21;2.00;;;1.85;;
9174;SDS011;54374;50.196;8.050;2022-07-05T03:49:48;3.95;;;1.77;;
9174;SDS011;54374;50.196;8.050;2022-07-05T03:52:16;2.45;;;2.00;;
9174;SDS011;54374;50.196;8.050;2022-07-05T03:54:44;3.55;;;1.88;;
9174;SDS011;54374;50.196;8.050;2022-07-05T03:57:12;2.10;;;2.00;;
9174;SDS011;54374;50.196;8.050;2022-07-05T03:59:39;3.05;;;2.45;;
9174;SDS011;54374;50.196;8.050;2022-07-05T04:02:06;2.33;;;2.10;;
9174;SDS011;54374;50.196;8.050;2022-07-05T04:04:34;2.22;;;2.08;;
9174;SDS011;54374;50.196;8.050;2022-07-05T04:07:04;3.95;;;2.38;;
9174;SDS011;54374;50.196;8.050;2022-07-05T04:09:32;2.58;;;2.20;;
9174;SDS011;54374;50.196;8.050;2022-07-05T04:12:01;2.40;;;2.20;;
9174;SDS011;54374;50.196;8.050;2022-07-05T04:14:30;4.72;;;2.30;;
9174;SDS011;54374;50.196;8.050;2022-07-05T04:16:57;2.60;;;2.13;;
9174;SDS011;54374;50.196;8.050;2022-07-05T04:19:24;4.05;;;1.77;;
9174;SDS011;54374;50.196;8.050;2022-07-05T04:21:52;2.67;;;1.70;;
9174;SDS011;54374;50.196;8.050;2022-07-05T04:24:20;2.53;;;2.05;;
9174;SDS011;54374;50.196;8.050;2022-07-05T04:26:47;2.40;;;2.20;;
9174;SDS011;54374;50.196;8.050;2022-07-05T04:29:16;3.15;;;2.67;;
9174;SDS011;54374;50.196;8.050;2022-07-05T04:31:44;4.10;;;2.10;;
9174;SDS011;54374;50.196;8.050;2022-07-05T04:34:12;2.58;;;2.10;;
9174;SDS011;54374;50.196;8.050;2022-07-05T04:36:40;3.47;;;2.03;;
9174;SDS011;54374;50.196;8.050;2022-07-05T04:39:08;2.15;;;1.95;;
9174;SDS011;54374;50.196;8.050;2022-07-05T04:41:39;3.90;;;2.30;;
9174;SDS011;54374;50.196;8.050;2022-07-05T04:44:07;3.22;;;1.80;;
9174;SDS011;54374;50.196;8.050;2022-07-05T04:46:38;3.08;;;1.88;;
9174;SDS011;54374;50.196;8.050;2022-07-05T04:49:05;2.60;;;1.83;;
9174;SDS011;54374;50.196;8.050;2022-07-05T04:51:32;2.10;;;1.88;;
9174;SDS011;54374;50.196;8.050;2022-07-05T04:53:59;4.00;;;1.90;;
9174;SDS011;54374;50.196;8.050;2022-07-05T04:56:26;4.80;;;3.08;;
9174;SDS011;54374;50.196;8.050;2022-07-05T04:58:53;3.22;;;1.75;;
9174;SDS011;54374;50.196;8.050;2022-07-05T05:01:20;2.80;;;1.65;;
9174;SDS011;54374;50.196;8.050;2022-07-05T05:03:53;2.90;;;1.88;;
9174;SDS011;54374;50.196;8.050;2022-07-05T05:06:20;2.63;;;1.75;;
9174;SDS011;54374;50.196;8.050;2022-07-05T05:08:47;2.13;;;1.80;;
9174;SDS011;54374;50.196;8.050;2022-07-05T05:11:15;2.20;;;1.90;;
9174;SDS011;54374;50.196;8.050;2022-07-05T05:13:42;3.75;;;2.20;;
9174;SDS011;54374;50.196;8.050;2022-07-05T05:16:10;2.05;;;1.77;;
9174;SDS011;54374;50.196;8.050;2022-07-05T05:18:37;1.80;;;1.70;;
9174;SDS011;54374;50.196;8.050;2022-07-05T05:21:06;1.85;;;1.67;;
9174;SDS011;54374;50.196;8.050;2022-07-05T05:23:58;2.45;;;1.50;;
9174;SDS011;54374;50.196;8.050;2022-07-05T05:26:25;1.95;;;1.85;;
9174;SDS011;54374;50.196;8.050;2022-07-05T05:28:52;1.42;;;1.30;;
9174;SDS011;54374;50.196;8.050;2022-07-05T05:31:19;2.20;;;1.75;;
9174;SDS011;54374;50.196;8.050;2022-07-05T05:33:46;2.35;;;1.75;;
9174;SDS011;54374;50.196;8.050;2022-07-05T05:36:15;4.05;;;1.90;;
9174;SDS011;54374;50.196;8.050;2022-07-05T05:38:42;1.88;;;1.67;;
9174;SDS011;54374;50.196;8.050;2022-07-05T05:41:09;3.58;;;2.08;;
9174;SDS011;54374;50.196;8.050;2022-07-05T05:43:36;1.60;;;1.50;;
9174;SDS011;54374;50.196;8.050;2022-07-05T05:46:03;1.55;;;1.42;;
9174;SDS011;54374;50.196;8.050;2022-07-05T05:48:31;1.70;;;1.60;;
9174;SDS011;54374;50.196;8.050;2022-07-05T05:50:58;2.90;;;1.42;;
9174;SDS011;54374;50.196;8.050;2022-07-05T05:53:27;1.65;;;1.48;;
9174;SDS011;54374;50.196;8.050;2022-07-05T05:55:54;2.13;;;1.67;;
9174;SDS011;54374;50.196;8.050;2022-07-05T05:58:22;2.33;;;1.60;;
9174;SDS011;54374;50.196;8.050;2022-07-05T06:00:49;1.70;;;1.20;;
9174;SDS011;54374;50.196;8.050;2022-07-05T06:03:17;1.73;;;1.63;;
9174;SDS011;54374;50.196;8.050;2022-07-05T06:05:45;2.40;;;1.50;;
9174;SDS011;54374;50.196;8.050;2022-07-05T06:08:12;4.10;;;1.50;;
9174;SDS011;54374;50.196;8.050;2022-07-05T06:10:41;3.70;;;1.83;;
9174;SDS011;54374;50.196;8.050;2022-07-05T06:13:10;2.20;;;2.00;;
9174;SDS011;54374;50.196;8.050;2022-07-05T06:15:38;1.77;;;1.67;;
9174;SDS011;54374;50.196;8.050;2022-07-05T06:18:06;2.20;;;1.67;;
9174;SDS011;54374;50.196;8.050;2022-07-05T06:20:34;2.40;;;1.73;;
9174;SDS011;54374;50.196;8.050;2022-07-05T06:23:03;1.87;;;1.43;;
9174;SDS011;54374;50.196;8.050;2022-07-05T06:25:31;2.10;;;1.90;;
9174;SDS011;54374;50.196;8.050;2022-07-05T06:28:01;2.93;;;1.60;;
9174;SDS011;54374;50.196;8.050;2022-07-05T06:30:30;3.90;;;1.50;;
9174;SDS011;54374;50.196;8.050;2022-07-05T06:32:58;2.40;;;2.00;;
9174;SDS011;54374;50.196;8.050;2022-07-05T06:35:26;1.73;;;1.60;;
9174;SDS011;54374;50.196;8.050;2022-07-05T06:37:54;2.03;;;1.93;;
9174;SDS011;54374;50.196;8.050;2022-07-05T06:40:22;2.30;;;1.83;;
9174;SDS011;54374;50.196;8.050;2022-07-05T06:42:51;1.60;;;1.50;;
9174;SDS011;54374;50.196;8.050;2022-07-05T06:45:24;3.27;;;2.00;;
9174;SDS011;54374;50.196;8.050;2022-07-05T06:47:55;2.17;;;1.80;;
9174;SDS011;54374;50.196;8.050;2022-07-05T06:50:22;4.00;;;1.60;;
9174;SDS011;54374;50.196;8.050;2022-07-05T06:52:49;2.57;;;1.60;;
9174;SDS011;54374;50.196;8.050;2022-07-05T06:55:17;2.20;;;1.97;;
9174;SDS011;54374;50.196;8.050;2022-07-05T06:57:44;1.63;;;1.53;;
9174;SDS011;54374;50.196;8.050;2022-07-05T07:00:11;2.73;;;2.10;;
9174;SDS011;54374;50.196;8.050;2022-07-05T07:02:40;5.03;;;1.87;;
9174;SDS011;54374;50.196;8.050;2022-07-05T07:05:08;3.90;;;1.73;;
9174;SDS011;54374;50.196;8.050;2022-07-05T07:07:35;3.67;;;1.60;;
9174;SDS011;54374;50.196;8.050;2022-07-05T07:10:20;4.37;;;1.90;;
9174;SDS011;54374;50.196;8.050;2022-07-05T07:12:47;4.67;;;1.87;;
9174;SDS011;54374;50.196;8.050;2022-07-05T07:15:14;3.73;;;1.80;;
9174;SDS011;54374;50.196;8.050;2022-07-05T07:17:42;3.73;;;1.83;;
9174;SDS011;54374;50.196;8.050;2022-07-05T07:20:10;3.47;;;1.90;;
9174;SDS011;54374;50.196;8.050;2022-07-05T07:22:37;1.80;;;1.53;;
9174;SDS011;54374;50.196;8.050;2022-07-05T07:25:06;4.23;;;1.70;;
9174;SDS011;54374;50.196;8.050;2022-07-05T07:27:40;1.60;;;1.50;;
9174;SDS011;54374;50.196;8.050;2022-07-05T07:30:09;6.87;;;1.90;;
9174;SDS011;54374;50.196;8.050;2022-07-05T07:32:37;2.70;;;1.50;;
9174;SDS011;54374;50.196;8.050;2022-07-05T07:35:06;3.23;;;2.43;;
9174;SDS011;54374;50.196;8.050;2022-07-05T07:37:35;2.60;;;2.13;;
9174;SDS011;54374;50.196;8.050;2022-07-05T07:40:02;2.80;;;1.70;;
9174;SDS011;54374;50.196;8.050;2022-07-05T07:42:30;5.47;;;1.80;;
9174;SDS011;54374;50.196;8.050;2022-07-05T07:44:58;2.37;;;1.70;;
9174;SDS011;54374;50.196;8.050;2022-07-05T07:47:29;5.40;;;1.80;;
9174;SDS011;54374;50.196;8.050;2022-07-05T07:49:56;2.90;;;1.73;;
9174;SDS011;54374;50.196;8.050;2022-07-05T07:52:24;4.40;;;1.90;;
9174;SDS011;54374;50.196;8.050;2022-07-05T07:54:52;2.20;;;1.57;;
9174;SDS011;54374;50.196;8.050;2022-07-05T07:57:19;2.77;;;1.70;;
9174;SDS011;54374;50.196;8.050;2022-07-05T07:59:46;1.50;;;1.40;;
9174;SDS011;54374;50.196;8.050;2022-07-05T08:02:13;5.30;;;1.70;;
9174;SDS011;54374;50.196;8.050;2022-07-05T08:04:40;2.00;;;1.80;;
9174;SDS011;54374;50.196;8.050;2022-07-05T08:07:07;3.23;;;1.40;;
9174;SDS011;54374;50.196;8.050;2022-07-05T08:09:36;2.27;;;1.77;;
9174;SDS011;54374;50.196;8.050;2022-07-05T08:12:03;2.20;;;1.83;;
9174;SDS011;54374;50.196;8.050;2022-07-05T08:14:31;4.80;;;1.50;;
9174;SDS011;54374;50.196;8.050;2022-07-05T08:17:01;4.77;;;1.83;;
9174;SDS011;54374;50.196;8.050;2022-07-05T08:19:34;1.70;;;1.60;;
9174;SDS011;54374;50.196;8.050;2022-07-05T08:22:19;2.40;;;1.70;;
9174;SDS011;54374;50.196;8.050;2022-07-05T08:24:48;2.90;;;1.50;;
9174;SDS011;54374;50.196;8.050;2022-07-05T08:27:15;2.03;;;1.60;;
9174;SDS011;54374;50.196;8.050;2022-07-05T08:29:43;2.53;;;1.53;;
9174;SDS011;54374;50.196;8.050;2022-07-05T08:32:10;2.77;;;1.57;;
9174;SDS011;54374;50.196;8.050;2022-07-05T08:34:37;3.17;;;1.90;;
9174;SDS011;54374;50.196;8.050;2022-07-05T08:37:04;2.80;;;1.50;;
9174;SDS011;54374;50.196;8.050;2022-07-05T08:39:32;6.23;;;1.60;;
9174;SDS011;54374;50.196;8.050;2022-07-05T08:42:01;3.80;;;2.37;;
9174;SDS011;54374;50.196;8.050;2022-07-05T08:44:29;2.30;;;1.80;;
9174;SDS011;54374;50.196;8.050;2022-07-05T08:47:01;3.00;;;1.57;;
9174;SDS011;54374;50.196;8.050;2022-07-05T08:49:30;2.20;;;1.70;;
9174;SDS011;54374;50.196;8.050;2022-07-05T08:51:58;3.70;;;1.50;;
9174;SDS011;54374;50.196;8.050;2022-07-05T08:54:30;3.70;;;1.70;;
9174;SDS011;54374;50.196;8.050;2022-07-05T08:56:57;4.03;;;1.70;;
9174;SDS011;54374;50.196;8.050;2022-07-05T08:59:25;2.20;;;1.43;;
9174;SDS011;54374;50.196;8.050;2022-07-05T09:01:52;2.10;;;1.50;;
9174;SDS011;54374;50.196;8.050;2022-07-05T09:04:22;3.83;;;1.70;;
9174;SDS011;54374;50.196;8.050;2022-07-05T09:06:55;4.10;;;1.57;;
9174;SDS011;54374;50.196;8.050;2022-07-05T09:09:27;9.03;;;1.80;;
9174;SDS011;54374;50.196;8.050;2022-07-05T09:11:54;4.83;;;1.50;;
9174;SDS011;54374;50.196;8.050;2022-07-05T09:14:23;1.60;;;1.50;;
9174;SDS011;54374;50.196;8.050;2022-07-05T09:16:53;1.23;;;1.10;;
9174;SDS011;54374;50.196;8.050;2022-07-05T09:19:20;1.70;;;1.30;;
9174;SDS011;54374;50.196;8.050;2022-07-05T09:21:47;4.23;;;1.50;;
9174;SDS011;54374;50.196;8.050;2022-07-05T09:24:28;3.00;;;1.63;;
9174;SDS011;54374;50.196;8.050;2022-07-05T09:27:03;4.23;;;1.53;;
9174;SDS011;54374;50.196;8.050;2022-07-05T09:29:31;3.37;;;1.70;;
9174;SDS011;54374;50.196;8.050;2022-07-05T09:32:00;1.90;;;1.40;;
9174;SDS011;54374;50.196;8.050;2022-07-05T09:34:27;4.60;;;1.80;;
9174;SDS011;54374;50.196;8.050;2022-07-05T09:36:57;1.97;;;1.30;;
9174;SDS011;54374;50.196;8.050;2022-07-05T09:39:37;2.43;;;1.40;;
9174;SDS011;54374;50.196;8.050;2022-07-05T09:42:09;2.50;;;1.57;;
9174;SDS011;54374;50.196;8.050;2022-07-05T09:44:37;2.07;;;1.50;;
9174;SDS011;54374;50.196;8.050;2022-07-05T09:47:09;3.83;;;1.70;;
9174;SDS011;54374;50.196;8.050;2022-07-05T09:49:38;1.53;;;1.20;;
9174;SDS011;54374;50.196;8.050;2022-07-05T09:52:07;3.90;;;1.53;;
9174;SDS011;54374;50.196;8.050;2022-07-05T09:54:34;1.50;;;1.40;;
9174;SDS011;54374;50.196;8.050;2022-07-05T09:57:01;1.50;;;1.23;;
9174;SDS011;54374;50.196;8.050;2022-07-05T09:59:29;1.33;;;1.23;;
9174;SDS011;54374;50.196;8.050;2022-07-05T10:01:56;2.70;;;1.57;;
9174;SDS011;54374;50.196;8.050;2022-07-05T10:04:24;2.60;;;1.70;;
9174;SDS011;54374;50.196;8.050;2022-07-05T10:06:51;1.77;;;1.40;;
9174;SDS011;54374;50.196;8.050;2022-07-05T10:09:18;2.07;;;1.70;;
9174;SDS011;54374;50.196;8.050;2022-07-05T10:11:49;3.10;;;1.70;;
9174;SDS011;54374;50.196;8.050;2022-07-05T10:14:18;4.50;;;1.57;;
9174;SDS011;54374;50.196;8.050;2022-07-05T10:16:56;4.00;;;2.23;;
9174;SDS011;54374;50.196;8.050;2022-07-05T10:19:32;4.30;;;1.67;;
9174;SDS011;54374;50.196;8.050;2022-07-05T10:22:03;2.27;;;1.60;;
9174;SDS011;54374;50.196;8.050;2022-07-05T10:24:33;2.77;;;1.70;;
9174;SDS011;54374;50.196;8.050;2022-07-05T10:27:03;3.73;;;1.97;;
9174;SDS011;54374;50.196;8.050;2022-07-05T10:29:33;2.60;;;1.40;;
9174;SDS011;54374;50.196;8.050;2022-07-05T10:32:01;1.30;;;1.20;;
9174;SDS011;54374;50.196;8.050;2022-07-05T10:34:28;2.60;;;1.57;;
9174;SDS011;54374;50.196;8.050;2022-07-05T10:36:59;2.60;;;1.30;;
9174;SDS011;54374;50.196;8.050;2022-07-05T10:39:26;1.50;;;1.40;;
9174;SDS011;54374;50.196;8.050;2022-07-05T10:41:54;1.50;;;1.40;;
9174;SDS011;54374;50.196;8.050;2022-07-05T10:44:25;1.37;;;1.27;;
9174;SDS011;54374;50.196;8.050;2022-07-05T10:47:06;1.43;;;1.20;;
9174;SDS011;54374;50.196;8.050;2022-07-05T10:49:35;2.00;;;1.70;;
9174;SDS011;54374;50.196;8.050;2022-07-05T10:52:03;3.33;;;1.80;;
9174;SDS011;54374;50.196;8.050;2022-07-05T10:54:30;1.40;;;1.30;;
9174;SDS011;54374;50.196;8.050;2022-07-05T11:00:04;3.73;;;1.70;;
9174;SDS011;54374;50.196;8.050;2022-07-05T11:02:31;1.80;;;1.60;;
9174;SDS011;54374;50.196;8.050;2022-07-05T11:05:00;2.93;;;1.80;;
9174;SDS011;54374;50.196;8.050;2022-07-05T11:10:25;1.80;;;1.70;;
9174;SDS011;54374;50.196;8.050;2022-07-05T11:12:53;2.10;;;1.90;;
9174;SDS011;54374;50.196;8.050;2022-07-05T11:15:20;1.70;;;1.60;;
9174;SDS011;54374;50.196;8.050;2022-07-05T11:17:47;2.57;;;1.73;;
9174;SDS011;54374;50.196;8.050;2022-07-05T11:20:16;2.00;;;1.77;;
9174;SDS011;54374;50.196;8.050;2022-07-05T11:23:05;1.80;;;1.70;;
9174;SDS011;54374;50.196;8.050;2022-07-05T11:25:34;2.67;;;1.90;;
9174;SDS011;54374;50.196;8.050;2022-07-05T11:28:16;2.10;;;1.70;;
9174;SDS011;54374;50.196;8.050;2022-07-05T11:30:53;1.60;;;1.50;;
9174;SDS011;54374;50.196;8.050;2022-07-05T11:33:36;2.30;;;1.93;;
9174;SDS011;54374;50.196;8.050;2022-07-05T11:36:06;5.03;;;1.90;;
9174;SDS011;54374;50.196;8.050;2022-07-05T11:39:06;2.70;;;1.83;;
9174;SDS011;54374;50.196;8.050;2022-07-05T11:41:34;6.07;;;1.90;;
9174;SDS011;54374;50.196;8.050;2022-07-05T11:44:04;3.33;;;1.60;;
9174;SDS011;54374;50.196;8.050;2022-07-05T11:46:33;1.70;;;1.60;;
9174;SDS011;54374;50.196;8.050;2022-07-05T11:49:00;1.90;;;1.70;;
9174;SDS011;54374;50.196;8.050;2022-07-05T11:51:29;3.40;;;1.93;;
9174;SDS011;54374;50.196;8.050;2022-07-05T11:53:56;2.60;;;1.50;;
9174;SDS011;54374;50.196;8.050;2022-07-05T11:56:23;2.20;;;2.00;;
9174;SDS011;54374;50.196;8.050;2022-07-05T11:58:50;1.70;;;1.57;;
9174;SDS011;54374;50.196;8.050;2022-07-05T12:01:17;2.50;;;1.90;;
9174;SDS011;54374;50.196;8.050;2022-07-05T12:03:54;2.37;;;2.17;;
9174;SDS011;54374;50.196;8.050;2022-07-05T12:06:22;2.90;;;1.70;;
9174;SDS011;54374;50.196;8.050;2022-07-05T12:09:04;2.97;;;2.03;;
9174;SDS011;54374;50.196;8.050;2022-07-05T12:11:31;4.13;;;2.10;;
9174;SDS011;54374;50.196;8.050;2022-07-05T12:14:19;4.80;;;2.20;;
9174;SDS011;54374;50.196;8.050;2022-07-05T12:16:47;3.20;;;2.10;;
9174;SDS011;54374;50.196;8.050;2022-07-05T12:19:23;1.80;;;1.70;;
9174;SDS011;54374;50.196;8.050;2022-07-05T12:21:52;2.70;;;1.80;;
9174;SDS011;54374;50.196;8.050;2022-07-05T12:24:21;2.80;;;2.00;;
9174;SDS011;54374;50.196;8.050;2022-07-05T12:26:50;5.80;;;2.10;;
9174;SDS011;54374;50.196;8.050;2022-07-05T12:29:17;3.33;;;1.83;;
9174;SDS011;54374;50.196;8.050;2022-07-05T12:34:34;2.97;;;2.67;;
9174;SDS011;54374;50.196;8.050;2022-07-05T12:37:01;3.43;;;2.33;;
9174;SDS011;54374;50.196;8.050;2022-07-05T12:39:31;2.30;;;1.90;;
9174;SDS011;54374;50.196;8.050;2022-07-05T12:41:58;2.70;;;2.50;;
9174;SDS011;54374;50.196;8.050;2022-07-05T12:44:26;3.10;;;2.60;;
9174;SDS011;54374;50.196;8.050;2022-07-05T12:47:02;3.10;;;2.00;;
9174;SDS011;54374;50.196;8.050;2022-07-05T12:49:30;3.67;;;2.30;;
9174;SDS011;54374;50.196;8.050;2022-07-05T12:52:02;4.70;;;2.60;;
9174;SDS011;54374;50.196;8.050;2022-07-05T12:54:31;4.03;;;2.10;;
9174;SDS011;54374;50.196;8.050;2022-07-05T12:57:16;2.33;;;2.17;;
9174;SDS011;54374;50.196;8.050;2022-07-05T13:00:00;3.73;;;2.50;;
9174;SDS011;54374;50.196;8.050;2022-07-05T13:02:33;4.37;;;2.17;;
9174;SDS011;54374;50.196;8.050;2022-07-05T13:05:03;2.37;;;2.17;;
9174;SDS011;54374;50.196;8.050;2022-07-05T13:07:31;5.33;;;2.50;;
9174;SDS011;54374;50.196;8.050;2022-07-05T13:12:43;3.80;;;2.20;;
9174;SDS011;54374;50.196;8.050;2022-07-05T13:15:10;2.60;;;2.40;;
9174;SDS011;54374;50.196;8.050;2022-07-05T13:17:37;2.43;;;2.00;;
9174;SDS011;54374;50.196;8.050;2022-07-05T13:20:05;3.20;;;2.17;;
9174;SDS011;54374;50.196;8.050;2022-07-05T13:22:33;4.43;;;2.40;;
9174;SDS011;54374;50.196;8.050;2022-07-05T13:25:00;2.07;;;1.97;;
9174;SDS011;54374;50.196;8.050;2022-07-05T13:27:29;2.67;;;2.47;;
9174;SDS011;54374;50.196;8.050;2022-07-05T13:29:56;7.23;;;2.57;;
9174;SDS011;54374;50.196;8.050;2022-07-05T13:32:23;2.20;;;2.10;;
9174;SDS011;54374;50.196;8.050;2022-07-05T13:34:50;4.57;;;2.60;;
9174;SDS011;54374;50.196;8.050;2022-07-05T13:37:17;2.40;;;2.20;;
9174;SDS011;54374;50.196;8.050;2022-07-05T13:39:45;3.63;;;2.30;;
9174;SDS011;54374;50.196;8.050;2022-07-05T13:42:12;4.30;;;2.70;;
9174;SDS011;54374;50.196;8.050;2022-07-05T13:44:40;2.60;;;2.33;;
9174;SDS011;54374;50.196;8.050;2022-07-05T13:47:07;3.73;;;2.47;;
9174;SDS011;54374;50.196;8.050;2022-07-05T13:49:36;4.00;;;2.10;;
9174;SDS011;54374;50.196;8.050;2022-07-05T13:52:05;5.37;;;2.63;;
9174;SDS011;54374;50.196;8.050;2022-07-05T13:54:32;2.63;;;2.43;;
9174;SDS011;54374;50.196;8.050;2022-07-05T13:57:00;2.50;;;2.30;;
9174;SDS011;54374;50.196;8.050;2022-07-05T13:59:27;2.40;;;2.20;;
9174;SDS011;54374;50.196;8.050;2022-07-05T14:01:55;3.13;;;2.40;;
9174;SDS011;54374;50.196;8.050;2022-07-05T14:04:23;4.23;;;2.97;;
9174;SDS011;54374;50.196;8.050;2022-07-05T14:06:52;6.93;;;3.07;;
9174;SDS011;54374;50.196;8.050;2022-07-05T14:09:19;6.93;;;2.37;;
9174;SDS011;54374;50.196;8.050;2022-07-05T14:11:47;3.37;;;2.40;;
9174;SDS011;54374;50.196;8.050;2022-07-05T14:14:14;4.90;;;2.47;;
9174;SDS011;54374;50.196;8.050;2022-07-05T14:16:41;6.20;;;2.50;;
9174;SDS011;54374;50.196;8.050;2022-07-05T14:19:09;2.60;;;2.40;;
9174;SDS011;54374;50.196;8.050;2022-07-05T14:21:36;3.60;;;3.10;;
9174;SDS011;54374;50.196;8.050;2022-07-05T14:24:04;5.03;;;2.37;;
9174;SDS011;54374;50.196;8.050;2022-07-05T14:26:32;3.13;;;2.77;;
9174;SDS011;54374;50.196;8.050;2022-07-05T14:28:59;7.83;;;2.53;;
9174;SDS011;54374;50.196;8.050;2022-07-05T14:31:27;3.10;;;2.77;;
9174;SDS011;54374;50.196;8.050;2022-07-05T14:33:56;6.23;;;2.40;;
9174;SDS011;54374;50.196;8.050;2022-07-05T14:36:25;3.50;;;2.30;;
9174;SDS011;54374;50.196;8.050;2022-07-05T14:38:52;3.20;;;2.20;;
9174;SDS011;54374;50.196;8.050;2022-07-05T14:41:19;3.27;;;2.30;;
9174;SDS011;54374;50.196;8.050;2022-07-05T14:43:46;3.73;;;2.73;;
9174;SDS011;54374;50.196;8.050;2022-07-05T14:46:13;3.27;;;2.10;;
9174;SDS011;54374;50.196;8.050;2022-07-05T14:48:43;5.60;;;3.10;;
9174;SDS011;54374;50.196;8.050;2022-07-05T14:51:10;3.07;;;2.70;;
9174;SDS011;54374;50.196;8.050;2022-07-05T14:53:39;3.77;;;2.80;;
9174;SDS011;54374;50.196;8.050;2022-07-05T14:56:07;4.10;;;2.57;;
9174;SDS011;54374;50.196;8.050;2022-07-05T14:58:34;3.13;;;2.70;;
9174;SDS011;54374;50.196;8.050;2022-07-05T15:01:01;2.77;;;2.23;;
9174;SDS011;54374;50.196;8.050;2022-07-05T15:03:28;2.60;;;2.40;;
9174;SDS011;54374;50.196;8.050;2022-07-05T15:05:55;2.40;;;2.20;;
9174;SDS011;54374;50.196;8.050;2022-07-05T15:08:23;2.57;;;2.37;;
9174;SDS011;54374;50.196;8.050;2022-07-05T15:10:54;3.40;;;2.87;;
9174;SDS011;54374;50.196;8.050;2022-07-05T15:13:21;3.10;;;2.37;;
9174;SDS011;54374;50.196;8.050;2022-07-05T15:15:50;4.70;;;2.20;;
9174;SDS011;54374;50.196;8.050;2022-07-05T15:18:17;2.77;;;2.40;;
9174;SDS011;54374;50.196;8.050;2022-07-05T15:20:45;2.67;;;2.40;;
9174;SDS011;54374;50.196;8.050;2022-07-05T15:23:12;5.10;;;2.40;;